sensor_id;sensor_type;location;lat;lon;timestamp;temperature;humidity
56771;DHT22;42641;59.794;17.616;2022-08-19T00:01:56;19.60;99.90
56771;DHT22;42641;59.794;17.616;2022-08-19T00:04:29;19.60;99.90
56771;DHT22;42641;59.794;17.616;2022-08-19T00:06:57;19.60;99.90
56771;DHT22;42641;59.794;17.616;2022-08-19T00:09:24;19.60;99.90
56771;DHT22;42641;59.794;17.616;2022-08-19T00:11:51;19.60;99.90
56771;DHT22;42641;59.794;17.616;2022-08-19T00:14:19;19.60;99.90
56771;DHT22;42641;59.794;17.616;2022-08-19T00:16:47;19.60;99.90
56771;DHT22;42641;59.794;17.616;2022-08-19T00:19:15;19.70;99.90
56771;DHT22;42641;59.794;17.616;2022-08-19T00:21:42;19.70;99.90
56771;DHT22;42641;59.794;17.616;2022-08-19T00:24:11;19.70;99.90
56771;DHT22;42641;59.794;17.616;2022-08-19T00:26:39;19.70;99.90
56771;DHT22;42641;59.794;17.616;2022-08-19T00:29:07;19.70;99.90
56771;DHT22;42641;59.794;17.616;2022-08-19T00:31:33;19.70;99.90
56771;DHT22;42641;59.794;17.616;2022-08-19T00:34:00;19.70;99.90
56771;DHT22;42641;59.794;17.616;2022-08-19T00:36:26;19.70;99.90
56771;DHT22;42641;59.794;17.616;2022-08-19T00:38:54;19.70;99.90
56771;DHT22;42641;59.794;17.616;2022-08-19T00:41:21;19.70;99.90
56771;DHT22;42641;59.794;17.616;2022-08-19T00:44:12;19.80;99.90
56771;DHT22;42641;59.794;17.616;2022-08-19T00:46:42;19.80;99.90
56771;DHT22;42641;59.794;17.616;2022-08-19T00:52:19;19.80;99.90
56771;DHT22;42641;59.794;17.616;2022-08-19T00:54:47;19.90;99.90
56771;DHT22;42641;59.794;17.616;2022-08-19T00:57:16;19.80;99.90
56771;DHT22;42641;59.794;17.616;2022-08-19T00:59:45;19.80;99.90
56771;DHT22;42641;59.794;17.616;2022-08-19T01:02:14;19.70;99.90
56771;DHT22;42641;59.794;17.616;2022-08-19T01:04:41;19.70;99.90
56771;DHT22;42641;59.794;17.616;2022-08-19T01:07:07;19.70;99.90
56771;DHT22;42641;59.794;17.616;2022-08-19T01:09:34;19.70;99.90
56771;DHT22;42641;59.794;17.616;2022-08-19T01:12:01;19.80;99.90
56771;DHT22;42641;59.794;17.616;2022-08-19T01:14:28;19.80;99.90
56771;DHT22;42641;59.794;17.616;2022-08-19T01:16:55;19.80;99.90
56771;DHT22;42641;59.794;17.616;2022-08-19T01:19:33;19.80;99.90
56771;DHT22;42641;59.794;17.616;2022-08-19T01:24:49;19.80;99.90
56771;DHT22;42641;59.794;17.616;2022-08-19T01:27:16;19.90;99.90
56771;DHT22;42641;59.794;17.616;2022-08-19T01:29:44;19.90;99.90
56771;DHT22;42641;59.794;17.616;2022-08-19T01:32:14;19.90;99.90
56771;DHT22;42641;59.794;17.616;2022-08-19T01:34:40;19.90;99.90
56771;DHT22;42641;59.794;17.616;2022-08-19T01:37:10;19.90;99.90
56771;DHT22;42641;59.794;17.616;2022-08-19T01:39:38;19.90;99.90
56771;DHT22;42641;59.794;17.616;2022-08-19T01:42:06;19.90;99.90
56771;DHT22;42641;59.794;17.616;2022-08-19T01:44:36;19.90;99.90
56771;DHT22;42641;59.794;17.616;2022-08-19T01:47:04;20.00;99.90
56771;DHT22;42641;59.794;17.616;2022-08-19T01:49:31;20.00;99.90
56771;DHT22;42641;59.794;17.616;2022-08-19T01:51:59;20.00;99.90
56771;DHT22;42641;59.794;17.616;2022-08-19T01:54:26;20.00;99.90
56771;DHT22;42641;59.794;17.616;2022-08-19T01:56:57;20.00;99.90
56771;DHT22;42641;59.794;17.616;2022-08-19T01:59:24;20.00;99.90
56771;DHT22;42641;59.794;17.616;2022-08-19T02:01:50;20.00;99.90
56771;DHT22;42641;59.794;17.616;2022-08-19T02:04:17;20.00;99.90
56771;DHT22;42641;59.794;17.616;2022-08-19T02:06:43;20.10;99.90
56771;DHT22;42641;59.794;17.616;2022-08-19T02:09:10;20.10;99.90
56771;DHT22;42641;59.794;17.616;2022-08-19T02:11:36;20.10;99.90
56771;DHT22;42641;59.794;17.616;2022-08-19T02:14:06;20.10;99.90
56771;DHT22;42641;59.794;17.616;2022-08-19T02:16:32;20.20;99.90
56771;DHT22;42641;59.794;17.616;2022-08-19T02:18:59;20.30;99.90
56771;DHT22;42641;59.794;17.616;2022-08-19T02:21:29;20.30;99.90
56771;DHT22;42641;59.794;17.616;2022-08-19T02:23:56;20.30;99.90
56771;DHT22;42641;59.794;17.616;2022-08-19T02:26:22;20.30;99.90
56771;DHT22;42641;59.794;17.616;2022-08-19T02:28:49;20.30;99.90
56771;DHT22;42641;59.794;17.616;2022-08-19T02:31:19;20.30;99.90
56771;DHT22;42641;59.794;17.616;2022-08-19T02:33:46;20.30;99.90
56771;DHT22;42641;59.794;17.616;2022-08-19T02:36:14;20.30;99.90
56771;DHT22;42641;59.794;17.616;2022-08-19T02:38:43;20.20;99.90
56771;DHT22;42641;59.794;17.616;2022-08-19T02:41:31;20.20;99.90
56771;DHT22;42641;59.794;17.616;2022-08-19T02:43:59;20.20;99.90
56771;DHT22;42641;59.794;17.616;2022-08-19T02:46:29;20.20;99.90
56771;DHT22;42641;59.794;17.616;2022-08-19T02:48:59;20.30;99.90
56771;DHT22;42641;59.794;17.616;2022-08-19T02:51:29;20.20;99.90
56771;DHT22;42641;59.794;17.616;2022-08-19T02:53:56;20.20;99.90
56771;DHT22;42641;59.794;17.616;2022-08-19T02:56:23;20.20;99.90
56771;DHT22;42641;59.794;17.616;2022-08-19T02:58:50;20.20;99.90
56771;DHT22;42641;59.794;17.616;2022-08-19T03:01:27;20.20;99.90
56771;DHT22;42641;59.794;17.616;2022-08-19T03:03:56;20.20;99.90
56771;DHT22;42641;59.794;17.616;2022-08-19T03:06:23;20.10;99.90
56771;DHT22;42641;59.794;17.616;2022-08-19T03:08:50;20.10;99.90
56771;DHT22;42641;59.794;17.616;2022-08-19T03:11:31;20.10;99.90
56771;DHT22;42641;59.794;17.616;2022-08-19T03:13:58;20.10;99.90
56771;DHT22;42641;59.794;17.616;2022-08-19T03:16:27;20.10;99.90
56771;DHT22;42641;59.794;17.616;2022-08-19T03:18:57;20.20;99.90
56771;DHT22;42641;59.794;17.616;2022-08-19T03:21:32;20.20;99.90
56771;DHT22;42641;59.794;17.616;2022-08-19T03:24:01;20.20;99.90
56771;DHT22;42641;59.794;17.616;2022-08-19T03:26:28;20.10;99.90
56771;DHT22;42641;59.794;17.616;2022-08-19T03:28:55;20.20;99.90
56771;DHT22;42641;59.794;17.616;2022-08-19T03:31:23;20.20;99.90
56771;DHT22;42641;59.794;17.616;2022-08-19T03:33:51;20.30;99.90
56771;DHT22;42641;59.794;17.616;2022-08-19T03:36:23;20.30;99.90
56771;DHT22;42641;59.794;17.616;2022-08-19T03:38:52;20.20;99.90
56771;DHT22;42641;59.794;17.616;2022-08-19T03:41:23;20.20;99.90
56771;DHT22;42641;59.794;17.616;2022-08-19T03:43:51;20.20;99.90
56771;DHT22;42641;59.794;17.616;2022-08-19T03:46:24;20.20;99.90
56771;DHT22;42641;59.794;17.616;2022-08-19T03:48:52;20.20;99.90
56771;DHT22;42641;59.794;17.616;2022-08-19T03:51:25;20.30;99.90
56771;DHT22;42641;59.794;17.616;2022-08-19T03:53:53;20.30;99.90
56771;DHT22;42641;59.794;17.616;2022-08-19T03:56:20;20.30;99.90
56771;DHT22;42641;59.794;17.616;2022-08-19T03:58:46;20.30;99.90
56771;DHT22;42641;59.794;17.616;2022-08-19T04:01:15;20.30;99.90
56771;DHT22;42641;59.794;17.616;2022-08-19T04:03:42;20.30;99.90
56771;DHT22;42641;59.794;17.616;2022-08-19T04:06:22;20.30;99.90
56771;DHT22;42641;59.794;17.616;2022-08-19T04:08:50;20.30;99.90
56771;DHT22;42641;59.794;17.616;2022-08-19T04:11:19;20.30;99.90
56771;DHT22;42641;59.794;17.616;2022-08-19T04:13:49;20.30;99.90
56771;DHT22;42641;59.794;17.616;2022-08-19T04:16:21;20.30;99.90
56771;DHT22;42641;59.794;17.616;2022-08-19T04:18:48;20.30;99.90
56771;DHT22;42641;59.794;17.616;2022-08-19T04:21:21;20.40;99.90
56771;DHT22;42641;59.794;17.616;2022-08-19T04:23:48;20.40;99.90
56771;DHT22;42641;59.794;17.616;2022-08-19T04:26:17;20.30;99.90
56771;DHT22;42641;59.794;17.616;2022-08-19T04:28:45;20.40;99.90
56771;DHT22;42641;59.794;17.616;2022-08-19T04:31:14;20.40;99.90
56771;DHT22;42641;59.794;17.616;2022-08-19T04:33:41;20.40;99.90
56771;DHT22;42641;59.794;17.616;2022-08-19T04:36:08;20.40;99.90
56771;DHT22;42641;59.794;17.616;2022-08-19T04:38:41;20.50;99.90
56771;DHT22;42641;59.794;17.616;2022-08-19T04:41:07;20.50;99.90
56771;DHT22;42641;59.794;17.616;2022-08-19T04:43:52;20.60;99.90
56771;DHT22;42641;59.794;17.616;2022-08-19T04:46:19;20.60;99.90
56771;DHT22;42641;59.794;17.616;2022-08-19T04:48:46;20.60;99.90
56771;DHT22;42641;59.794;17.616;2022-08-19T04:51:12;20.60;99.90
56771;DHT22;42641;59.794;17.616;2022-08-19T04:53:41;20.60;99.90
56771;DHT22;42641;59.794;17.616;2022-08-19T04:56:11;20.50;99.90
56771;DHT22;42641;59.794;17.616;2022-08-19T04:58:38;20.50;99.90
56771;DHT22;42641;59.794;17.616;2022-08-19T05:01:06;20.60;99.90
56771;DHT22;42641;59.794;17.616;2022-08-19T05:03:32;20.60;99.90
56771;DHT22;42641;59.794;17.616;2022-08-19T05:06:16;20.50;99.90
56771;DHT22;42641;59.794;17.616;2022-08-19T05:08:43;20.60;99.90
56771;DHT22;42641;59.794;17.616;2022-08-19T05:11:16;20.60;99.90
56771;DHT22;42641;59.794;17.616;2022-08-19T05:13:43;20.60;99.90
56771;DHT22;42641;59.794;17.616;2022-08-19T05:16:12;20.60;99.90
56771;DHT22;42641;59.794;17.616;2022-08-19T05:18:39;20.70;99.90
56771;DHT22;42641;59.794;17.616;2022-08-19T05:21:25;20.70;99.90
56771;DHT22;42641;59.794;17.616;2022-08-19T05:24:12;20.80;99.90
56771;DHT22;42641;59.794;17.616;2022-08-19T05:26:46;20.70;99.90
56771;DHT22;42641;59.794;17.616;2022-08-19T05:29:18;20.80;99.90
56771;DHT22;42641;59.794;17.616;2022-08-19T05:31:45;20.90;99.90
56771;DHT22;42641;59.794;17.616;2022-08-19T05:34:12;20.80;99.90
56771;DHT22;42641;59.794;17.616;2022-08-19T05:36:42;20.90;99.90
56771;DHT22;42641;59.794;17.616;2022-08-19T05:39:12;20.90;99.90
56771;DHT22;42641;59.794;17.616;2022-08-19T05:41:43;21.00;99.90
56771;DHT22;42641;59.794;17.616;2022-08-19T05:44:10;21.10;99.90
56771;DHT22;42641;59.794;17.616;2022-08-19T05:46:38;21.10;99.90
56771;DHT22;42641;59.794;17.616;2022-08-19T05:49:06;21.10;99.90
56771;DHT22;42641;59.794;17.616;2022-08-19T05:51:34;21.10;99.90
56771;DHT22;42641;59.794;17.616;2022-08-19T05:54:13;21.10;99.90
56771;DHT22;42641;59.794;17.616;2022-08-19T05:56:41;21.10;99.90
56771;DHT22;42641;59.794;17.616;2022-08-19T05:59:10;21.10;99.90
56771;DHT22;42641;59.794;17.616;2022-08-19T06:01:39;21.20;99.90
56771;DHT22;42641;59.794;17.616;2022-08-19T06:04:06;21.20;99.90
56771;DHT22;42641;59.794;17.616;2022-08-19T06:06:33;21.20;99.90
56771;DHT22;42641;59.794;17.616;2022-08-19T06:09:02;21.30;99.90
56771;DHT22;42641;59.794;17.616;2022-08-19T06:11:35;21.40;99.90
56771;DHT22;42641;59.794;17.616;2022-08-19T06:14:05;21.40;99.90
56771;DHT22;42641;59.794;17.616;2022-08-19T06:16:35;21.40;99.90
56771;DHT22;42641;59.794;17.616;2022-08-19T06:19:05;21.50;99.90
56771;DHT22;42641;59.794;17.616;2022-08-19T06:21:34;21.60;99.90
56771;DHT22;42641;59.794;17.616;2022-08-19T06:24:05;21.60;99.90
56771;DHT22;42641;59.794;17.616;2022-08-19T06:26:34;21.60;99.90
56771;DHT22;42641;59.794;17.616;2022-08-19T06:29:01;21.70;99.90
56771;DHT22;42641;59.794;17.616;2022-08-19T06:31:29;21.60;99.90
56771;DHT22;42641;59.794;17.616;2022-08-19T06:33:57;21.70;99.90
56771;DHT22;42641;59.794;17.616;2022-08-19T06:36:30;21.60;99.90
56771;DHT22;42641;59.794;17.616;2022-08-19T06:39:05;21.60;99.90
56771;DHT22;42641;59.794;17.616;2022-08-19T06:41:38;21.60;99.90
56771;DHT22;42641;59.794;17.616;2022-08-19T06:44:10;21.70;99.90
56771;DHT22;42641;59.794;17.616;2022-08-19T06:46:38;21.70;99.90
56771;DHT22;42641;59.794;17.616;2022-08-19T06:49:05;21.70;99.90
56771;DHT22;42641;59.794;17.616;2022-08-19T06:51:32;21.80;99.90
56771;DHT22;42641;59.794;17.616;2022-08-19T06:53:59;21.80;99.90
56771;DHT22;42641;59.794;17.616;2022-08-19T06:56:28;21.80;99.90
56771;DHT22;42641;59.794;17.616;2022-08-19T06:59:05;21.80;99.90
56771;DHT22;42641;59.794;17.616;2022-08-19T07:01:36;21.80;99.90
56771;DHT22;42641;59.794;17.616;2022-08-19T07:04:05;21.70;99.90
56771;DHT22;42641;59.794;17.616;2022-08-19T07:06:32;21.80;99.90
56771;DHT22;42641;59.794;17.616;2022-08-19T07:08:59;21.90;99.90
56771;DHT22;42641;59.794;17.616;2022-08-19T07:11:25;22.00;99.90
56771;DHT22;42641;59.794;17.616;2022-08-19T07:13:52;22.00;99.90
56771;DHT22;42641;59.794;17.616;2022-08-19T07:16:19;21.90;99.90
56771;DHT22;42641;59.794;17.616;2022-08-19T07:18:47;21.90;99.90
56771;DHT22;42641;59.794;17.616;2022-08-19T07:21:20;22.00;99.90
56771;DHT22;42641;59.794;17.616;2022-08-19T07:23:48;22.00;99.90
56771;DHT22;42641;59.794;17.616;2022-08-19T07:26:22;22.10;99.90
56771;DHT22;42641;59.794;17.616;2022-08-19T07:28:49;22.10;99.90
56771;DHT22;42641;59.794;17.616;2022-08-19T07:31:19;22.00;99.90
56771;DHT22;42641;59.794;17.616;2022-08-19T07:33:47;22.00;99.90
56771;DHT22;42641;59.794;17.616;2022-08-19T07:36:17;22.10;99.90
56771;DHT22;42641;59.794;17.616;2022-08-19T07:38:45;22.20;99.90
56771;DHT22;42641;59.794;17.616;2022-08-19T07:41:18;22.30;99.90
56771;DHT22;42641;59.794;17.616;2022-08-19T07:43:46;22.30;99.90
56771;DHT22;42641;59.794;17.616;2022-08-19T07:46:13;22.30;99.90
56771;DHT22;42641;59.794;17.616;2022-08-19T07:48:42;22.40;99.90
56771;DHT22;42641;59.794;17.616;2022-08-19T07:51:15;22.50;99.90
56771;DHT22;42641;59.794;17.616;2022-08-19T07:53:42;22.50;99.90
56771;DHT22;42641;59.794;17.616;2022-08-19T07:56:12;22.60;99.90
56771;DHT22;42641;59.794;17.616;2022-08-19T07:58:42;22.70;99.90
56771;DHT22;42641;59.794;17.616;2022-08-19T08:01:13;22.80;99.90
56771;DHT22;42641;59.794;17.616;2022-08-19T08:03:40;22.90;99.90
56771;DHT22;42641;59.794;17.616;2022-08-19T08:06:25;23.00;99.90
56771;DHT22;42641;59.794;17.616;2022-08-19T08:09:11;23.20;99.90
56771;DHT22;42641;59.794;17.616;2022-08-19T08:12:00;23.30;99.90
56771;DHT22;42641;59.794;17.616;2022-08-19T08:14:31;23.50;99.90
56771;DHT22;42641;59.794;17.616;2022-08-19T08:16:59;23.50;99.90
56771;DHT22;42641;59.794;17.616;2022-08-19T08:19:27;23.60;99.90
56771;DHT22;42641;59.794;17.616;2022-08-19T08:21:55;23.60;99.90
56771;DHT22;42641;59.794;17.616;2022-08-19T08:24:23;23.70;99.90
56771;DHT22;42641;59.794;17.616;2022-08-19T08:26:49;24.00;99.90
56771;DHT22;42641;59.794;17.616;2022-08-19T08:29:16;24.20;99.90
56771;DHT22;42641;59.794;17.616;2022-08-19T08:31:43;24.60;99.90
56771;DHT22;42641;59.794;17.616;2022-08-19T08:34:12;24.60;99.90
56771;DHT22;42641;59.794;17.616;2022-08-19T08:36:40;24.50;99.90
56771;DHT22;42641;59.794;17.616;2022-08-19T08:39:09;24.50;99.90
56771;DHT22;42641;59.794;17.616;2022-08-19T08:41:57;24.30;99.90
56771;DHT22;42641;59.794;17.616;2022-08-19T08:47:09;24.30;99.90
56771;DHT22;42641;59.794;17.616;2022-08-19T08:49:59;24.50;99.90
56771;DHT22;42641;59.794;17.616;2022-08-19T08:52:37;24.80;99.90
56771;DHT22;42641;59.794;17.616;2022-08-19T08:55:25;24.90;99.90
56771;DHT22;42641;59.794;17.616;2022-08-19T08:58:01;24.90;99.90
56771;DHT22;42641;59.794;17.616;2022-08-19T09:00:38;24.90;99.90
56771;DHT22;42641;59.794;17.616;2022-08-19T09:03:12;25.10;99.90
56771;DHT22;42641;59.794;17.616;2022-08-19T09:06:12;25.30;99.90
56771;DHT22;42641;59.794;17.616;2022-08-19T09:09:14;25.60;99.90
56771;DHT22;42641;59.794;17.616;2022-08-19T09:14:57;25.80;99.90
56771;DHT22;42641;59.794;17.616;2022-08-19T09:17:27;26.10;99.90
56771;DHT22;42641;59.794;17.616;2022-08-19T09:20:08;26.10;99.90
56771;DHT22;42641;59.794;17.616;2022-08-19T09:22:41;26.20;99.90
56771;DHT22;42641;59.794;17.616;2022-08-19T09:25:13;26.30;99.90
56771;DHT22;42641;59.794;17.616;2022-08-19T09:27:43;26.50;99.90
56771;DHT22;42641;59.794;17.616;2022-08-19T09:30:14;26.60;99.90
56771;DHT22;42641;59.794;17.616;2022-08-19T09:32:40;26.70;99.90
56771;DHT22;42641;59.794;17.616;2022-08-19T09:35:09;26.90;99.90
56771;DHT22;42641;59.794;17.616;2022-08-19T09:37:36;26.90;99.90
56771;DHT22;42641;59.794;17.616;2022-08-19T09:40:03;27.00;99.90
56771;DHT22;42641;59.794;17.616;2022-08-19T09:42:29;27.20;99.90
56771;DHT22;42641;59.794;17.616;2022-08-19T09:44:56;27.30;99.90
56771;DHT22;42641;59.794;17.616;2022-08-19T09:47:22;27.40;99.90
56771;DHT22;42641;59.794;17.616;2022-08-19T09:49:49;27.50;99.90
56771;DHT22;42641;59.794;17.616;2022-08-19T09:52:16;27.60;99.90
56771;DHT22;42641;59.794;17.616;2022-08-19T09:54:44;27.60;99.90
56771;DHT22;42641;59.794;17.616;2022-08-19T09:57:10;27.80;99.90
56771;DHT22;42641;59.794;17.616;2022-08-19T09:59:36;27.90;99.90
56771;DHT22;42641;59.794;17.616;2022-08-19T10:02:04;28.10;99.90
56771;DHT22;42641;59.794;17.616;2022-08-19T10:04:30;28.30;99.90
56771;DHT22;42641;59.794;17.616;2022-08-19T10:07:15;28.50;99.90
56771;DHT22;42641;59.794;17.616;2022-08-19T10:09:42;28.70;99.90
56771;DHT22;42641;59.794;17.616;2022-08-19T10:12:08;28.90;99.90
56771;DHT22;42641;59.794;17.616;2022-08-19T10:14:35;28.90;99.90
56771;DHT22;42641;59.794;17.616;2022-08-19T10:17:02;29.00;99.90
56771;DHT22;42641;59.794;17.616;2022-08-19T10:19:29;29.20;99.90
56771;DHT22;42641;59.794;17.616;2022-08-19T10:22:06;29.20;99.90
56771;DHT22;42641;59.794;17.616;2022-08-19T10:24:36;29.30;99.90
56771;DHT22;42641;59.794;17.616;2022-08-19T10:27:02;29.40;99.90
56771;DHT22;42641;59.794;17.616;2022-08-19T10:29:32;29.60;99.90
56771;DHT22;42641;59.794;17.616;2022-08-19T10:32:05;29.80;99.90
56771;DHT22;42641;59.794;17.616;2022-08-19T10:34:34;29.90;99.90
56771;DHT22;42641;59.794;17.616;2022-08-19T10:40:11;30.00;99.90
56771;DHT22;42641;59.794;17.616;2022-08-19T10:42:49;30.10;99.90
56771;DHT22;42641;59.794;17.616;2022-08-19T10:45:15;30.40;99.90
56771;DHT22;42641;59.794;17.616;2022-08-19T10:47:43;30.60;99.90
56771;DHT22;42641;59.794;17.616;2022-08-19T10:50:09;31.00;99.90
56771;DHT22;42641;59.794;17.616;2022-08-19T10:52:54;31.00;99.90
56771;DHT22;42641;59.794;17.616;2022-08-19T10:55:23;31.00;99.90
56771;DHT22;42641;59.794;17.616;2022-08-19T10:58:16;31.00;99.90
56771;DHT22;42641;59.794;17.616;2022-08-19T11:00:59;31.00;99.90
56771;DHT22;42641;59.794;17.616;2022-08-19T11:03:46;31.10;99.90
56771;DHT22;42641;59.794;17.616;2022-08-19T11:06:18;31.10;99.90
56771;DHT22;42641;59.794;17.616;2022-08-19T11:08:46;31.30;99.90
56771;DHT22;42641;59.794;17.616;2022-08-19T11:11:12;31.40;99.90
56771;DHT22;42641;59.794;17.616;2022-08-19T11:13:40;31.50;99.90
56771;DHT22;42641;59.794;17.616;2022-08-19T11:16:11;31.90;99.90
56771;DHT22;42641;59.794;17.616;2022-08-19T11:18:44;32.70;99.90
56771;DHT22;42641;59.794;17.616;2022-08-19T11:21:28;33.40;99.90
56771;DHT22;42641;59.794;17.616;2022-08-19T11:24:02;33.80;99.90
56771;DHT22;42641;59.794;17.616;2022-08-19T11:26:33;34.10;99.90
56771;DHT22;42641;59.794;17.616;2022-08-19T11:29:00;34.30;99.90
56771;DHT22;42641;59.794;17.616;2022-08-19T11:31:29;34.50;99.90
56771;DHT22;42641;59.794;17.616;2022-08-19T11:34:01;34.70;99.90
56771;DHT22;42641;59.794;17.616;2022-08-19T11:36:30;35.00;99.90
56771;DHT22;42641;59.794;17.616;2022-08-19T11:39:13;35.30;99.90
56771;DHT22;42641;59.794;17.616;2022-08-19T11:41:50;35.50;99.00
56771;DHT22;42641;59.794;17.616;2022-08-19T11:44:19;35.70;98.90
56771;DHT22;42641;59.794;17.616;2022-08-19T11:46:46;35.90;98.30
56771;DHT22;42641;59.794;17.616;2022-08-19T11:49:15;36.00;96.10
56771;DHT22;42641;59.794;17.616;2022-08-19T11:51:42;36.20;97.30
56771;DHT22;42641;59.794;17.616;2022-08-19T11:54:09;36.30;96.20
56771;DHT22;42641;59.794;17.616;2022-08-19T11:56:37;36.30;95.50
56771;DHT22;42641;59.794;17.616;2022-08-19T11:59:04;36.30;94.90
56771;DHT22;42641;59.794;17.616;2022-08-19T12:01:30;36.40;94.50
56771;DHT22;42641;59.794;17.616;2022-08-19T12:03:58;36.50;93.70
56771;DHT22;42641;59.794;17.616;2022-08-19T12:06:30;36.60;93.10
56771;DHT22;42641;59.794;17.616;2022-08-19T12:08:59;36.80;92.90
56771;DHT22;42641;59.794;17.616;2022-08-19T12:11:26;36.70;92.30
56771;DHT22;42641;59.794;17.616;2022-08-19T12:13:53;36.80;91.50
56771;DHT22;42641;59.794;17.616;2022-08-19T12:16:24;36.80;91.50
56771;DHT22;42641;59.794;17.616;2022-08-19T12:18:51;36.50;91.60
56771;DHT22;42641;59.794;17.616;2022-08-19T12:21:20;36.60;91.60
56771;DHT22;42641;59.794;17.616;2022-08-19T12:23:49;36.90;90.40
56771;DHT22;42641;59.794;17.616;2022-08-19T12:26:16;37.10;91.40
56771;DHT22;42641;59.794;17.616;2022-08-19T12:28:44;37.20;91.50
56771;DHT22;42641;59.794;17.616;2022-08-19T12:31:11;37.60;89.50
56771;DHT22;42641;59.794;17.616;2022-08-19T12:33:43;37.90;87.70
56771;DHT22;42641;59.794;17.616;2022-08-19T12:36:16;38.00;88.40
56771;DHT22;42641;59.794;17.616;2022-08-19T12:38:44;38.20;87.20
56771;DHT22;42641;59.794;17.616;2022-08-19T12:41:13;38.30;87.50
56771;DHT22;42641;59.794;17.616;2022-08-19T12:43:41;38.50;84.50
56771;DHT22;42641;59.794;17.616;2022-08-19T12:46:09;38.80;82.80
56771;DHT22;42641;59.794;17.616;2022-08-19T12:48:36;39.20;83.10
56771;DHT22;42641;59.794;17.616;2022-08-19T12:51:07;39.20;78.60
56771;DHT22;42641;59.794;17.616;2022-08-19T12:53:34;38.90;81.50
56771;DHT22;42641;59.794;17.616;2022-08-19T12:56:02;38.60;80.80
56771;DHT22;42641;59.794;17.616;2022-08-19T12:58:29;38.40;80.80
56771;DHT22;42641;59.794;17.616;2022-08-19T13:00:55;38.60;79.20
56771;DHT22;42641;59.794;17.616;2022-08-19T13:03:22;38.50;78.80
56771;DHT22;42641;59.794;17.616;2022-08-19T13:05:53;38.70;78.90
56771;DHT22;42641;59.794;17.616;2022-08-19T13:08:19;39.00;77.90
56771;DHT22;42641;59.794;17.616;2022-08-19T13:10:46;39.00;74.40
56771;DHT22;42641;59.794;17.616;2022-08-19T13:13:12;38.50;76.30
56771;DHT22;42641;59.794;17.616;2022-08-19T13:15:41;38.30;75.60
56771;DHT22;42641;59.794;17.616;2022-08-19T13:18:09;38.30;75.90
56771;DHT22;42641;59.794;17.616;2022-08-19T13:20:37;38.40;74.20
56771;DHT22;42641;59.794;17.616;2022-08-19T13:23:04;38.00;77.60
56771;DHT22;42641;59.794;17.616;2022-08-19T13:25:30;38.10;76.60
56771;DHT22;42641;59.794;17.616;2022-08-19T13:27:57;38.20;74.10
56771;DHT22;42641;59.794;17.616;2022-08-19T13:30:23;38.30;75.60
56771;DHT22;42641;59.794;17.616;2022-08-19T13:33:09;38.50;73.90
56771;DHT22;42641;59.794;17.616;2022-08-19T13:35:56;38.50;75.40
56771;DHT22;42641;59.794;17.616;2022-08-19T13:38:23;38.80;75.90
56771;DHT22;42641;59.794;17.616;2022-08-19T13:40:52;38.50;74.30
56771;DHT22;42641;59.794;17.616;2022-08-19T13:43:20;37.90;74.20
56771;DHT22;42641;59.794;17.616;2022-08-19T13:45:51;38.20;75.30
56771;DHT22;42641;59.794;17.616;2022-08-19T13:48:19;38.50;72.70
56771;DHT22;42641;59.794;17.616;2022-08-19T13:50:46;38.10;73.40
56771;DHT22;42641;59.794;17.616;2022-08-19T13:53:16;37.80;73.70
56771;DHT22;42641;59.794;17.616;2022-08-19T13:55:43;38.20;73.00
56771;DHT22;42641;59.794;17.616;2022-08-19T13:58:10;38.70;72.80
56771;DHT22;42641;59.794;17.616;2022-08-19T14:00:40;39.00;74.10
56771;DHT22;42641;59.794;17.616;2022-08-19T14:03:07;39.30;72.00
56771;DHT22;42641;59.794;17.616;2022-08-19T14:05:34;39.40;71.50
56771;DHT22;42641;59.794;17.616;2022-08-19T14:08:06;39.10;69.70
56771;DHT22;42641;59.794;17.616;2022-08-19T14:10:33;39.10;70.20
56771;DHT22;42641;59.794;17.616;2022-08-19T14:13:02;39.30;69.80
56771;DHT22;42641;59.794;17.616;2022-08-19T14:15:28;39.20;70.20
56771;DHT22;42641;59.794;17.616;2022-08-19T14:17:56;39.10;69.70
56771;DHT22;42641;59.794;17.616;2022-08-19T14:20:23;38.90;68.60
56771;DHT22;42641;59.794;17.616;2022-08-19T14:22:49;39.30;68.90
56771;DHT22;42641;59.794;17.616;2022-08-19T14:25:20;39.40;70.70
56771;DHT22;42641;59.794;17.616;2022-08-19T14:27:48;39.50;67.90
56771;DHT22;42641;59.794;17.616;2022-08-19T14:30:18;39.20;70.90
56771;DHT22;42641;59.794;17.616;2022-08-19T14:32:46;38.50;70.80
56771;DHT22;42641;59.794;17.616;2022-08-19T14:35:14;38.30;72.10
56771;DHT22;42641;59.794;17.616;2022-08-19T14:37:43;38.30;72.90
56771;DHT22;42641;59.794;17.616;2022-08-19T14:40:11;38.10;72.40
56771;DHT22;42641;59.794;17.616;2022-08-19T14:42:38;38.30;71.10
56771;DHT22;42641;59.794;17.616;2022-08-19T14:45:05;38.30;69.70
56771;DHT22;42641;59.794;17.616;2022-08-19T14:47:31;38.20;69.80
56771;DHT22;42641;59.794;17.616;2022-08-19T14:49:58;38.10;69.60
56771;DHT22;42641;59.794;17.616;2022-08-19T14:52:24;38.00;70.60
56771;DHT22;42641;59.794;17.616;2022-08-19T14:54:51;38.10;71.90
56771;DHT22;42641;59.794;17.616;2022-08-19T14:57:17;37.80;74.50
56771;DHT22;42641;59.794;17.616;2022-08-19T14:59:44;37.80;74.60
56771;DHT22;42641;59.794;17.616;2022-08-19T15:02:11;37.40;73.00
56771;DHT22;42641;59.794;17.616;2022-08-19T15:04:37;37.50;76.40
56771;DHT22;42641;59.794;17.616;2022-08-19T15:07:04;37.60;76.40
56771;DHT22;42641;59.794;17.616;2022-08-19T15:09:32;37.30;77.50
56771;DHT22;42641;59.794;17.616;2022-08-19T15:11:59;36.80;79.10
56771;DHT22;42641;59.794;17.616;2022-08-19T15:14:28;36.40;81.00
56771;DHT22;42641;59.794;17.616;2022-08-19T15:16:59;35.50;78.60
56771;DHT22;42641;59.794;17.616;2022-08-19T15:19:26;34.90;77.60
56771;DHT22;42641;59.794;17.616;2022-08-19T15:21:52;34.20;77.20
56771;DHT22;42641;59.794;17.616;2022-08-19T15:24:21;34.00;79.10
56771;DHT22;42641;59.794;17.616;2022-08-19T15:26:49;33.90;77.70
56771;DHT22;42641;59.794;17.616;2022-08-19T15:29:15;34.00;78.60
56771;DHT22;42641;59.794;17.616;2022-08-19T15:31:42;33.80;77.30
56771;DHT22;42641;59.794;17.616;2022-08-19T15:34:08;33.80;77.80
56771;DHT22;42641;59.794;17.616;2022-08-19T15:36:35;34.30;78.30
56771;DHT22;42641;59.794;17.616;2022-08-19T15:39:03;34.50;77.10
56771;DHT22;42641;59.794;17.616;2022-08-19T15:41:30;34.70;75.90
56771;DHT22;42641;59.794;17.616;2022-08-19T15:44:03;34.90;75.20
56771;DHT22;42641;59.794;17.616;2022-08-19T15:50:25;34.60;77.70